ΕΜΥ, Εθνική Μετεωρολογική Υπηρεσία - Δελτία Καιρού, Προγνώσεις

ΑΕΡΟΝΑΥΤΙΛΙΑ

GREEK AIRPORTS CODES

LGMG 270800Z 32005KT 9000 FEW010 SCT025 10/07 Q1006 RETS RMK SCT060 FEW180=

EUROPEAN AIRPORTS CODES

LFPO 270800Z 02012KT 9999 BKN028 OVC034 05/01 Q1023 NOSIG=